Detall de PIREP

Printer-friendly versionPDF version

[2013/02/22 16:32:00]
Flight IATA:CT2106
Pilot Number:044
Company ICAO:CAT
Aircraft Type:AT72/F
PAX:42
Departing Airport: LEVC
Destination Airport: LEMD
Alternate Airport:LEAB
Online: VATSIM
Route:CENTA A33 PRADO
Flight Level:F190
No Slew and time accel
No pause
Crash detect
Detect pilot in Cockpit between each 30 and 45 minutes
16:32 Zero fuel Weight: 39664 Lbs, Fuel Weight: 5489 Lbs
16:32 VATSIM:LEVC 221600Z 27016KT 9999 FEW030 20/01 Q1000 NOSIG
16:32 VATSIM:LEMD 221620Z 24010G24KT 210V290 9000 RA BKN030 SCT055 09/05 Q1001 NOSIG
16:33 VOICE CATALONIAN
16:44 Parking Brakes off
16:57 Take-off
16:57 Take off Weight: 45058 Lbs
16:57 Wind: 263º @ 014 Knots Heading: 293º
16:57 POS N39º 29´ 20´´ W000º 28´ 50´´
16:57 Gear Up: 132 Knots
16:57 Flaps:1 at 132 Knots
16:57 Flaps:2 at 147 Knots
16:58 Flaps:1 at 137 Knots
16:58 Flaps:0 at 138 Knots
17:11 TOC
17:11 Fuel Weight: 4920 Lb
17:12 Wind:247º@030 Knots Heading: 291º Ground Speed: 201 Knots Altitude 18487 ft
17:17 TOD
17:17 Fuel Weight: 4762 Lb
17:27 Wind:236º@010 Knots Heading: 268º Ground Speed: 230 Knots Altitude 7037 ft
17:39 Flaps:1 at 180 Knots
17:39 Gear Down: 179 Knots
17:41 Flaps:2 at 100 Knots
17:42 Wind:216º@006 Knots Heading: 315º Ground Speed: 117 Knots Altitude 4950 ft
17:45 TouchDown:Rate -100 ft/min Speed: 93 Knots
17:45 VATSIM:LEMD 221730Z 23008KT 9999 -DZ FEW012 BKN035 08/05 Q1000 R88/19//95 TEMPO RA
17:45 Land
17:45 Wind:233º@006 Knots
17:45 Heading: 321º
17:45 Flight Duration: 00:48
17:45 Landing Weight: 44074 Lbs
17:45 POS N40º 28´ 38´´ W003º 34´ 06´´
17:49 Parking brakes on
17:49 Block to Block Duration: 01:05
17:49 Final Fuel: 4382 Lbls
17:49 Spent Fuel: 1106 Lbls
17:49 Flight Length: 159 NM
17:49 TOD Land Length: 90 NM

Exportar CSV

Powered by Drupal - Modified by Danger4k